createdAt,value
2018-05-27T00:00:46.106Z,3.80
2018-05-27T00:03:13.610Z,4.32
2018-05-27T00:05:41.144Z,3.72
2018-05-27T00:08:09.038Z,4.45
2018-05-27T00:10:36.576Z,4.10
2018-05-27T00:13:04.084Z,4.10
2018-05-27T00:15:32.368Z,4.25
2018-05-27T00:17:59.887Z,4.80
2018-05-27T00:20:27.384Z,4.05
2018-05-27T00:22:54.893Z,4.43
2018-05-27T00:25:22.392Z,4.50
2018-05-27T00:27:50.672Z,4.90
2018-05-27T00:30:23.453Z,4.35
2018-05-27T00:32:51.880Z,3.78
2018-05-27T00:35:19.967Z,4.15
2018-05-27T00:37:47.466Z,4.72
2018-05-27T00:40:14.969Z,4.57
2018-05-27T00:42:42.466Z,4.37
2018-05-27T00:45:10.857Z,4.35
2018-05-27T00:47:39.130Z,4.90
2018-05-27T00:50:08.943Z,4.32
2018-05-27T00:52:37.286Z,4.55
2018-05-27T00:55:04.835Z,4.60
2018-05-27T00:57:32.337Z,4.45
2018-05-27T01:00:00.653Z,4.10
2018-05-27T01:02:28.179Z,4.30
2018-05-27T01:04:56.462Z,4.43
2018-05-27T01:07:24.717Z,4.60
2018-05-27T01:09:52.214Z,4.37
2018-05-27T01:12:20.318Z,4.75
2018-05-27T01:14:48.905Z,4.22
2018-05-27T01:17:16.467Z,4.72
2018-05-27T01:19:43.973Z,4.90
2018-05-27T01:22:12.252Z,4.60
2018-05-27T01:24:40.530Z,5.00
2018-05-27T01:27:08.047Z,4.78
2018-05-27T01:29:35.541Z,4.82
2018-05-27T01:32:04.543Z,5.75
2018-05-27T01:34:32.050Z,4.90
2018-05-27T01:36:59.561Z,4.68
2018-05-27T01:39:30.889Z,4.80
2018-05-27T01:41:59.229Z,5.07
2018-05-27T01:44:26.788Z,5.20
2018-05-27T01:46:54.285Z,5.30
2018-05-27T01:49:21.819Z,4.97
2018-05-27T01:51:49.958Z,5.35
2018-05-27T01:54:17.484Z,5.55
2018-05-27T01:56:45.761Z,4.80
2018-05-27T01:59:14.042Z,5.37
2018-05-27T02:01:42.318Z,4.82
2018-05-27T02:04:10.594Z,5.43
2018-05-27T02:06:39.173Z,5.05
2018-05-27T02:24:40.674Z,5.60
2018-05-27T02:27:08.200Z,5.95
2018-05-27T02:29:35.710Z,5.45
2018-05-27T02:32:03.230Z,5.62
2018-05-27T02:34:30.837Z,5.62
2018-05-27T02:36:58.337Z,5.70
2018-05-27T02:39:26.623Z,5.15
2018-05-27T02:41:54.141Z,5.53
2018-05-27T02:44:21.646Z,5.15
2018-05-27T02:46:49.178Z,5.87
2018-05-27T02:49:16.685Z,5.55
2018-05-27T02:51:44.205Z,5.80
2018-05-27T03:04:01.744Z,6.20
2018-05-27T03:06:29.979Z,6.32
2018-05-27T03:08:58.257Z,6.12
2018-05-27T03:11:26.546Z,6.22
2018-05-27T03:13:54.049Z,6.32
2018-05-27T03:16:21.671Z,6.40
2018-05-27T03:18:49.960Z,6.47
2018-05-27T03:21:17.467Z,6.12
2018-05-27T03:23:45.686Z,6.47
2018-05-27T03:26:13.905Z,6.60
2018-05-27T03:28:41.458Z,7.18
2018-05-27T03:31:13.298Z,7.07
2018-05-27T03:33:40.806Z,6.90
2018-05-27T03:36:08.305Z,7.10
2018-05-27T03:38:37.651Z,7.20
2018-05-27T03:41:05.145Z,7.50
2018-05-27T03:43:33.411Z,6.82
2018-05-27T03:46:01.692Z,7.15
2018-05-27T03:48:30.201Z,7.12
2018-05-27T03:50:57.746Z,7.50
2018-05-27T03:53:25.266Z,7.30
2018-05-27T03:55:53.269Z,7.40
2018-05-27T03:58:21.543Z,7.25
2018-05-27T04:00:49.825Z,7.40
2018-05-27T04:03:17.329Z,7.15
2018-05-27T04:05:56.756Z,7.37
2018-05-27T04:08:33.996Z,7.53
2018-05-27T04:11:02.317Z,8.07
2018-05-27T04:13:29.820Z,8.43
2018-05-27T04:15:57.328Z,7.78
2018-05-27T04:18:24.849Z,8.18
2018-05-27T04:20:53.117Z,8.77
2018-05-27T04:23:21.118Z,8.45
2018-05-27T04:25:48.621Z,8.48
2018-05-27T04:28:16.122Z,8.60
2018-05-27T04:30:45.149Z,8.50
2018-05-27T04:33:12.650Z,8.48
2018-05-27T04:35:40.139Z,8.63
2018-05-27T04:38:07.653Z,8.75
2018-05-27T04:40:35.654Z,8.88
2018-05-27T04:43:03.953Z,8.63
2018-05-27T04:45:31.456Z,8.40
2018-05-27T04:47:58.967Z,9.38
2018-05-27T04:50:27.264Z,10.07
2018-05-27T04:52:54.772Z,9.70
2018-05-27T04:55:22.295Z,9.63
2018-05-27T04:57:49.794Z,9.30
2018-05-27T05:00:17.386Z,11.45
2018-05-27T05:02:44.886Z,10.40
2018-05-27T05:05:12.403Z,10.20
2018-05-27T05:07:39.901Z,9.48
2018-05-27T05:10:07.401Z,9.82
2018-05-27T05:12:36.285Z,9.80
2018-05-27T05:15:05.451Z,9.77
2018-05-27T05:17:32.997Z,9.32
2018-05-27T05:20:00.518Z,9.82
2018-05-27T05:22:28.059Z,10.18
2018-05-27T05:24:56.332Z,9.55
2018-05-27T05:27:23.850Z,10.10
2018-05-27T05:29:51.349Z,9.43
2018-05-27T05:32:18.869Z,10.05
2018-05-27T05:34:46.380Z,9.68
2018-05-27T05:37:14.678Z,9.70
2018-05-27T05:39:42.200Z,10.35
2018-05-27T05:42:09.713Z,10.60
2018-05-27T05:44:37.245Z,10.45
2018-05-27T05:47:05.546Z,10.60
2018-05-27T05:49:33.042Z,10.18
2018-05-27T05:52:00.573Z,10.48
2018-05-27T05:54:28.098Z,10.07
2018-05-27T05:56:56.368Z,10.32
2018-05-27T05:59:24.659Z,10.07
2018-05-27T06:01:52.170Z,10.07
2018-05-27T06:04:20.104Z,9.55
2018-05-27T06:06:47.603Z,9.68
2018-05-27T06:09:15.124Z,9.80
2018-05-27T06:11:42.642Z,9.45
2018-05-27T06:14:10.919Z,9.55
2018-05-27T06:16:39.203Z,10.07
2018-05-27T06:19:07.504Z,9.70
2018-05-27T06:21:35.025Z,9.82
2018-05-27T06:24:02.638Z,10.70
2018-05-27T06:26:30.172Z,9.43
2018-05-27T06:28:58.459Z,8.88
2018-05-27T06:31:25.974Z,9.68
2018-05-27T06:33:53.483Z,10.27
2018-05-27T06:36:21.003Z,9.50
2018-05-27T06:38:48.554Z,9.77
2018-05-27T06:41:16.022Z,9.70
2018-05-27T06:43:43.518Z,8.80
2018-05-27T06:46:11.043Z,8.88
2018-05-27T06:48:39.371Z,9.35
2018-05-27T06:51:06.881Z,10.07
2018-05-27T06:53:35.170Z,9.75
2018-05-27T06:56:03.455Z,9.32
2018-05-27T06:58:31.022Z,9.65
2018-05-27T07:01:02.389Z,9.30
2018-05-27T07:03:29.912Z,8.75
2018-05-27T07:05:58.177Z,9.90
2018-05-27T07:08:26.531Z,9.23
2018-05-27T07:10:54.035Z,8.95
2018-05-27T07:13:22.944Z,9.20
2018-05-27T07:15:50.438Z,9.00
2018-05-27T07:18:17.978Z,9.48
2018-05-27T07:20:45.493Z,9.38
2018-05-27T07:23:13.765Z,9.10
2018-05-27T07:25:42.065Z,8.52
2018-05-27T07:28:09.621Z,8.68
2018-05-27T07:30:37.104Z,7.80
2018-05-27T07:33:04.681Z,8.20
2018-05-27T07:35:32.205Z,8.15
2018-05-27T07:37:59.705Z,8.98
2018-05-27T07:40:27.235Z,8.20
2018-05-27T07:42:54.774Z,8.82
2018-05-27T07:45:22.282Z,8.50
2018-05-27T07:47:49.858Z,8.80
2018-05-27T07:50:17.365Z,8.65
2018-05-27T07:52:44.887Z,8.43
2018-05-27T07:55:12.399Z,8.43
2018-05-27T07:57:39.939Z,8.10
2018-05-27T08:00:07.450Z,7.75
2018-05-27T08:02:34.965Z,7.62
2018-05-27T08:05:02.490Z,7.43
2018-05-27T08:07:30.819Z,6.72
2018-05-27T08:09:58.378Z,8.35
2018-05-27T08:12:25.889Z,8.18
2018-05-27T08:14:53.497Z,7.35
2018-05-27T08:17:25.033Z,7.55
2018-05-27T08:19:52.665Z,6.75
2018-05-27T08:22:21.837Z,6.87
2018-05-27T08:24:50.487Z,6.62
2018-05-27T08:27:17.990Z,6.93
2018-05-27T08:29:45.540Z,7.47
2018-05-27T08:32:13.333Z,6.93
2018-05-27T08:34:41.625Z,7.18
2018-05-27T08:50:09.169Z,6.32
2018-05-27T08:52:37.473Z,6.28
2018-05-27T08:55:05.046Z,6.45
2018-05-27T08:57:32.584Z,6.30
2018-05-27T09:00:00.116Z,6.55
2018-05-27T09:02:28.425Z,6.47
2018-05-27T09:04:55.921Z,8.90
2018-05-27T09:07:23.862Z,7.12
2018-05-27T09:09:51.350Z,6.28
2018-05-27T09:12:19.003Z,6.25
2018-05-27T09:14:46.530Z,6.47
2018-05-27T09:17:14.077Z,6.75
2018-05-27T09:19:41.586Z,5.78
2018-05-27T09:22:09.097Z,6.97
2018-05-27T09:24:36.626Z,6.20
2018-05-27T09:27:04.149Z,5.60
2018-05-27T09:29:31.677Z,5.68
2018-05-27T09:31:59.183Z,5.60
2018-05-27T09:34:26.706Z,6.00
2018-05-27T09:36:54.245Z,6.12
2018-05-27T09:39:22.500Z,6.03
2018-05-27T09:41:50.062Z,5.53
2018-05-27T09:44:17.674Z,6.10
2018-05-27T09:46:45.210Z,5.20
2018-05-27T09:49:12.724Z,5.50
2018-05-27T09:51:40.228Z,5.80
2018-05-27T09:54:08.325Z,4.57
2018-05-27T09:56:35.844Z,5.22
2018-05-27T09:59:05.185Z,5.00
2018-05-27T10:01:32.716Z,6.03
2018-05-27T10:04:00.229Z,5.47
2018-05-27T10:06:27.760Z,5.15
2018-05-27T10:08:55.370Z,6.28
2018-05-27T10:11:22.861Z,5.07
2018-05-27T10:13:50.380Z,5.30
2018-05-27T10:16:17.877Z,5.60
2018-05-27T10:18:45.418Z,5.50
2018-05-27T10:21:14.207Z,5.30
2018-05-27T10:23:43.022Z,5.25
2018-05-27T10:26:10.846Z,5.53
2018-05-27T10:28:39.250Z,5.30
2018-05-27T10:31:07.558Z,5.35
2018-05-27T10:33:35.076Z,5.57
2018-05-27T10:36:05.958Z,5.45
2018-05-27T10:38:34.537Z,5.35
2018-05-27T10:41:06.635Z,5.60
2018-05-27T10:43:34.179Z,5.28
2018-05-27T10:59:06.798Z,5.15
2018-05-27T11:01:35.659Z,5.22
2018-05-27T11:04:03.826Z,4.97
2018-05-27T11:06:31.334Z,4.90
2018-05-27T11:08:58.842Z,4.78
2018-05-27T11:11:26.404Z,4.80
2018-05-27T11:13:56.095Z,4.70
2018-05-27T11:16:23.597Z,5.65
2018-05-27T11:18:51.159Z,4.82
2018-05-27T11:21:19.617Z,4.80
2018-05-27T11:23:47.130Z,5.00
2018-05-27T11:26:18.906Z,4.90
2018-05-27T11:28:46.442Z,4.47
2018-05-27T11:31:13.959Z,4.60
2018-05-27T11:33:42.190Z,4.80
2018-05-27T11:36:10.000Z,4.68
2018-05-27T11:38:37.497Z,4.60
2018-05-27T11:41:05.756Z,4.82
2018-05-27T11:43:34.081Z,4.85
2018-05-27T11:46:01.609Z,4.50
2018-05-27T11:48:34.136Z,4.70
2018-05-27T11:51:02.112Z,4.53
2018-05-27T11:53:30.438Z,4.43
2018-05-27T11:55:58.083Z,4.68
2018-05-27T11:58:26.357Z,4.45
2018-05-27T12:00:58.623Z,4.68
2018-05-27T12:03:27.108Z,4.60
2018-05-27T12:05:56.063Z,4.30
2018-05-27T12:08:23.610Z,4.20
2018-05-27T12:10:51.658Z,4.37
2018-05-27T12:13:20.215Z,4.05
2018-05-27T12:15:48.490Z,4.70
2018-05-27T12:18:16.132Z,4.20
2018-05-27T12:20:44.534Z,4.53
2018-05-27T12:23:17.225Z,4.00
2018-05-27T12:25:48.064Z,4.60
2018-05-27T12:28:16.682Z,4.65
2018-05-27T12:30:48.078Z,4.40
2018-05-27T12:33:16.872Z,4.00
2018-05-27T12:35:45.969Z,4.40
2018-05-27T12:38:18.289Z,4.35
2018-05-27T12:40:45.802Z,4.62
2018-05-27T12:43:14.172Z,4.70
2018-05-27T12:45:41.700Z,4.47
2018-05-27T12:48:09.204Z,4.32
2018-05-27T12:50:36.716Z,4.60
2018-05-27T12:53:04.253Z,4.57
2018-05-27T12:55:31.798Z,4.70
2018-05-27T12:57:59.422Z,5.60
2018-05-27T13:00:30.891Z,4.93
2018-05-27T13:02:59.337Z,5.68
2018-05-27T13:05:31.110Z,6.18
2018-05-27T13:07:58.645Z,4.85
2018-05-27T13:10:26.199Z,4.72
2018-05-27T13:12:54.325Z,4.70
2018-05-27T13:15:22.601Z,4.62
2018-05-27T13:17:50.980Z,4.95
2018-05-27T13:20:20.950Z,4.75
2018-05-27T13:22:49.035Z,4.65
2018-05-27T13:25:17.269Z,4.80
2018-05-27T13:27:45.613Z,4.95
2018-05-27T13:30:13.130Z,4.70
2018-05-27T13:32:40.646Z,4.70
2018-05-27T13:35:08.955Z,4.60
2018-05-27T13:37:40.747Z,4.80
2018-05-27T13:40:08.261Z,4.82
2018-05-27T13:42:35.771Z,7.95
2018-05-27T13:45:03.329Z,4.78
2018-05-27T13:47:31.642Z,5.18
2018-05-27T13:49:59.906Z,4.72
2018-05-27T13:52:28.218Z,4.70
2018-05-27T13:54:56.553Z,4.43
2018-05-27T13:57:24.071Z,4.45
2018-05-27T13:59:55.313Z,4.47
2018-05-27T14:02:26.777Z,4.45
2018-05-27T14:04:54.351Z,4.80
2018-05-27T14:07:21.855Z,4.40
2018-05-27T14:09:50.204Z,5.03
2018-05-27T14:12:23.309Z,4.90
2018-05-27T14:14:52.303Z,5.03
2018-05-27T14:17:20.569Z,4.97
2018-05-27T14:19:48.816Z,4.60
2018-05-27T14:22:17.289Z,4.28
2018-05-27T14:24:44.894Z,5.00
2018-05-27T14:27:13.115Z,6.15
2018-05-27T14:29:41.853Z,4.87
2018-05-27T14:32:09.349Z,4.50
2018-05-27T14:34:36.880Z,4.80
2018-05-27T14:37:05.174Z,4.82
2018-05-27T14:39:33.443Z,4.62
2018-05-27T14:42:01.722Z,4.30
2018-05-27T14:44:30.068Z,4.62
2018-05-27T14:46:57.579Z,4.68
2018-05-27T15:02:31.553Z,4.72
2018-05-27T15:04:59.822Z,4.80
2018-05-27T15:07:31.325Z,5.00
2018-05-27T15:09:58.978Z,4.55
2018-05-27T15:12:29.101Z,4.50
2018-05-27T15:14:56.630Z,4.50
2018-05-27T15:17:24.914Z,4.70
2018-05-27T15:19:52.510Z,4.70
2018-05-27T15:22:20.005Z,4.80
2018-05-27T15:24:47.578Z,4.50
2018-05-27T15:27:16.605Z,4.50
2018-05-27T15:29:48.074Z,4.68
2018-05-27T15:32:15.633Z,4.70
2018-05-27T15:34:43.127Z,4.90
2018-05-27T15:37:10.636Z,4.80
2018-05-27T15:39:38.162Z,4.30
2018-05-27T15:42:07.050Z,4.70
2018-05-27T15:44:35.353Z,7.07
2018-05-27T15:47:03.795Z,4.90
2018-05-27T15:49:31.304Z,5.18
2018-05-27T15:51:59.030Z,5.65
2018-05-27T15:54:27.753Z,5.25
2018-05-27T15:56:55.663Z,6.25
2018-05-27T15:59:27.343Z,6.32
2018-05-27T16:01:55.682Z,5.40
2018-05-27T16:04:23.307Z,5.45
2018-05-27T16:06:51.555Z,5.57
2018-05-27T16:09:20.219Z,5.93
2018-05-27T16:11:48.482Z,6.18
2018-05-27T16:14:19.781Z,6.05
2018-05-27T16:16:48.053Z,6.50
2018-05-27T16:19:16.675Z,6.95
2018-05-27T16:21:44.407Z,5.32
2018-05-27T16:24:12.024Z,6.10
2018-05-27T16:26:39.872Z,5.10
2018-05-27T16:29:08.018Z,5.15
2018-05-27T16:31:39.698Z,5.30
2018-05-27T16:34:07.221Z,5.40
2018-05-27T16:36:36.248Z,4.80
2018-05-27T16:39:03.757Z,5.18
2018-05-27T16:41:36.018Z,5.10
2018-05-27T16:44:03.530Z,5.22
2018-05-27T16:46:31.050Z,5.12
2018-05-27T16:48:58.578Z,6.00
2018-05-27T16:51:30.633Z,5.78
2018-05-27T16:53:58.153Z,5.72
2018-05-27T16:56:27.125Z,5.28
2018-05-27T16:58:55.973Z,5.43
2018-05-27T17:01:23.481Z,5.55
2018-05-27T17:03:51.794Z,5.72
2018-05-27T17:06:20.209Z,5.82
2018-05-27T17:08:47.842Z,5.90
2018-05-27T17:11:15.392Z,6.05
2018-05-27T17:13:43.379Z,5.62
2018-05-27T17:16:10.966Z,5.80
2018-05-27T17:18:38.938Z,7.05
2018-05-27T17:21:07.014Z,5.75
2018-05-27T17:23:35.357Z,5.35
2018-05-27T17:26:02.924Z,5.35
2018-05-27T17:28:30.434Z,10.90
2018-05-27T17:30:59.197Z,23.33
2018-05-27T17:33:26.722Z,14.75
2018-05-27T17:35:54.755Z,7.05
2018-05-27T17:38:22.270Z,5.45
2018-05-27T17:40:49.837Z,6.90
2018-05-27T17:43:17.402Z,5.75
2018-05-27T17:45:49.390Z,6.05
2018-05-27T17:48:16.895Z,6.03
2018-05-27T17:50:45.082Z,6.05
2018-05-27T17:53:12.587Z,5.93
2018-05-27T17:55:40.860Z,6.47
2018-05-27T17:58:13.864Z,6.32
2018-05-27T18:00:42.793Z,6.22
2018-05-27T18:03:11.323Z,6.37
2018-05-27T18:05:39.602Z,6.18
2018-05-27T18:08:07.906Z,5.97
2018-05-27T18:10:35.409Z,6.28
2018-05-27T18:13:03.268Z,6.43
2018-05-27T18:15:30.811Z,6.35
2018-05-27T18:17:58.342Z,6.65
2018-05-27T18:20:25.869Z,6.50
2018-05-27T18:22:57.563Z,6.30
2018-05-27T18:25:25.627Z,6.32
2018-05-27T18:27:54.106Z,6.60
2018-05-27T18:30:22.399Z,5.90
2018-05-27T18:32:49.913Z,5.97
2018-05-27T18:35:17.439Z,5.90
2018-05-27T18:37:44.944Z,6.07
2018-05-27T18:40:13.278Z,5.28
2018-05-27T18:42:41.876Z,8.45
2018-05-27T18:45:09.435Z,9.32
2018-05-27T18:47:36.932Z,6.28
2018-05-27T18:50:09.232Z,6.55
2018-05-27T18:52:36.759Z,6.10
2018-05-27T18:55:05.062Z,5.47
2018-05-27T18:57:32.690Z,5.45
2018-05-27T19:00:00.219Z,6.03
2018-05-27T19:02:27.764Z,5.37
2018-05-27T19:04:55.666Z,5.60
2018-05-27T19:07:23.196Z,5.50
2018-05-27T19:09:56.236Z,5.18
2018-05-27T19:12:28.798Z,12.10
2018-05-27T19:15:03.443Z,5.35
2018-05-27T19:17:31.758Z,6.18
2018-05-27T19:19:59.278Z,5.30
2018-05-27T19:22:33.216Z,5.32
2018-05-27T19:25:01.347Z,5.95
2018-05-27T19:27:28.878Z,5.75
2018-05-27T19:29:56.378Z,5.68
2018-05-27T19:32:24.659Z,6.65
2018-05-27T19:34:52.925Z,5.87
2018-05-27T19:37:25.120Z,5.60
2018-05-27T19:39:53.266Z,6.22
2018-05-27T19:42:22.053Z,5.50
2018-05-27T19:44:50.335Z,6.22
2018-05-27T19:47:22.186Z,5.30
2018-05-27T19:49:49.865Z,5.28
2018-05-27T19:52:18.146Z,5.43
2018-05-27T19:54:46.515Z,6.18
2018-05-27T19:57:14.037Z,5.90
2018-05-27T19:59:41.588Z,6.62
2018-05-27T20:02:09.198Z,5.12
2018-05-27T20:04:42.976Z,4.85
2018-05-27T20:07:10.531Z,5.47
2018-05-27T20:09:38.051Z,4.82
2018-05-27T20:12:06.333Z,5.28
2018-05-27T20:14:33.839Z,4.72
2018-05-27T20:17:02.075Z,5.18
2018-05-27T20:19:29.604Z,5.87
2018-05-27T20:21:58.842Z,5.62
2018-05-27T20:24:26.369Z,5.32
2018-05-27T20:26:53.890Z,5.40
2018-05-27T20:29:21.424Z,9.35
2018-05-27T20:31:49.721Z,6.25
2018-05-27T20:34:17.234Z,6.28
2018-05-27T20:36:44.746Z,6.35
2018-05-27T20:39:16.373Z,5.80
2018-05-27T20:41:43.905Z,5.47
2018-05-27T20:44:11.573Z,5.40
2018-05-27T20:46:39.095Z,5.72
2018-05-27T20:49:06.601Z,6.32
2018-05-27T20:51:34.137Z,7.57
2018-05-27T20:54:01.666Z,6.43
2018-05-27T20:56:29.179Z,6.18
2018-05-27T20:58:56.755Z,5.93
2018-05-27T21:01:24.313Z,6.10
2018-05-27T21:03:51.808Z,6.40
2018-05-27T21:06:22.985Z,5.95
2018-05-27T21:08:54.748Z,6.18
2018-05-27T21:11:22.711Z,6.12
2018-05-27T21:13:54.031Z,6.53
2018-05-27T21:16:23.005Z,6.15
2018-05-27T21:18:50.517Z,6.00
2018-05-27T21:21:18.049Z,5.75
2018-05-27T21:23:46.324Z,5.87
2018-05-27T21:26:14.596Z,5.60
2018-05-27T21:28:42.116Z,5.15
2018-05-27T21:31:09.649Z,5.20
2018-05-27T21:33:37.768Z,5.40
2018-05-27T21:36:09.569Z,5.97
2018-05-27T21:38:37.083Z,5.62
2018-05-27T21:41:05.862Z,5.68
2018-05-27T21:43:33.395Z,5.62
2018-05-27T21:46:00.908Z,5.97
2018-05-27T21:48:28.439Z,6.03
2018-05-27T21:50:56.549Z,6.50
2018-05-27T21:53:28.982Z,6.20
2018-05-27T21:55:56.562Z,6.93
2018-05-27T21:58:24.129Z,5.97
2018-05-27T22:00:51.655Z,6.47
2018-05-27T22:03:23.314Z,6.37
2018-05-27T22:05:51.006Z,6.70
2018-05-27T22:08:18.533Z,6.70
2018-05-27T22:10:46.033Z,7.10
2018-05-27T22:13:13.872Z,6.87
2018-05-27T22:15:41.390Z,6.65
2018-05-27T22:18:08.911Z,6.15
2018-05-27T22:20:40.367Z,6.37
2018-05-27T22:23:07.886Z,6.68
2018-05-27T22:25:36.134Z,6.28
2018-05-27T22:28:03.887Z,6.43
2018-05-27T22:40:19.414Z,6.50
2018-05-27T22:42:47.705Z,6.82
2018-05-27T22:45:16.006Z,6.28
2018-05-27T22:47:43.529Z,6.80
2018-05-27T22:50:12.441Z,6.32
2018-05-27T22:52:40.734Z,6.80
2018-05-27T22:55:12.628Z,7.03
2018-05-27T22:57:40.829Z,7.00
2018-05-27T23:00:12.043Z,6.87
2018-05-27T23:02:39.540Z,6.55
2018-05-27T23:05:07.059Z,6.72
2018-05-27T23:07:36.721Z,6.90
2018-05-27T23:10:09.710Z,7.20
2018-05-27T23:12:38.364Z,6.80
2018-05-27T23:15:10.334Z,6.70
2018-05-27T23:17:37.839Z,6.97
2018-05-27T23:20:05.345Z,7.25
2018-05-27T23:22:32.845Z,7.40
2018-05-27T23:25:00.916Z,7.40
2018-05-27T23:27:28.433Z,7.10
2018-05-27T23:29:55.993Z,7.37
2018-05-27T23:32:24.547Z,7.05
2018-05-27T23:34:55.897Z,7.70
2018-05-27T23:37:23.434Z,7.90
2018-05-27T23:39:50.963Z,8.25
2018-05-27T23:42:18.753Z,7.90
2018-05-27T23:44:50.472Z,7.62
2018-05-27T23:47:17.972Z,8.13
2018-05-27T23:49:50.345Z,8.20
2018-05-27T23:52:18.609Z,8.23
2018-05-27T23:54:46.340Z,8.45
2018-05-27T23:57:13.895Z,8.95
2018-05-27T23:59:42.265Z,8.30
